Time;durP1;ratioP1;P1;durP2;ratioP2;P2;SDS_P1;SDS_P2;PMS_P1;PMS_P2;Temp;Humidity;BMP_temperature;BMP_pressure;BME280_temperature;BME280_humidity;BME280_pressure;Samples;Min_cycle;Max_cycle;Signal;HPM_P1;HPM_P2
2022/05/02 00:00:43;;;;;;;;;2.20;2.20;;;;;7.90;60.81;100347.56;5098659;28;8867;-63
2022/05/02 00:03:10;;;;;;;;;12.80;11.20;;;;;7.91;60.73;100341.31;5098969;28;8824;-63
2022/05/02 00:05:38;;;;;;;;;9.20;8.20;;;;;7.93;60.41;100337.63;5098546;28;8827;-63
2022/05/02 00:08:06;;;;;;;;;13.80;11.60;;;;;7.95;60.32;100341.03;5098267;28;8819;-63
2022/05/02 00:10:34;;;;;;;;;5.80;5.60;;;;;7.98;60.29;100324.91;5098192;28;8828;-63
2022/05/02 00:13:02;;;;;;;;;8.60;8.20;;;;;8.01;60.29;100329.19;5098295;28;8863;-63
2022/05/02 00:15:29;;;;;;;;;15.20;10.40;;;;;8.02;60.32;100318.50;5098611;28;9504;-63
2022/05/02 00:17:57;;;;;;;;;7.00;7.00;;;;;8.05;60.46;100310.31;5097884;28;8924;-62
2022/05/02 00:20:25;;;;;;;;;9.60;7.00;;;;;8.07;60.35;100303.13;5098286;28;8860;-63
2022/05/02 00:22:53;;;;;;;;;12.20;11.60;;;;;8.08;60.28;100310.16;5098309;28;8865;-63
2022/05/02 00:25:20;;;;;;;;;10.00;10.00;;;;;8.10;60.11;100312.69;5098059;28;8816;-63
2022/05/02 00:27:48;;;;;;;;;15.00;12.60;;;;;8.10;60.37;100304.72;5098456;28;8849;-63
2022/05/02 00:30:16;;;;;;;;;10.60;10.00;;;;;8.12;60.28;100306.34;5097652;28;8835;-63
2022/05/02 00:32:44;;;;;;;;;10.40;9.60;;;;;8.11;60.31;100306.44;5098336;28;8954;-63
2022/05/02 00:35:12;;;;;;;;;14.60;13.20;;;;;8.09;60.45;100300.38;5098036;28;8855;-63
2022/05/02 00:37:40;;;;;;;;;11.00;9.40;;;;;8.08;60.62;100298.69;5098286;28;8846;-63
2022/05/02 00:40:07;;;;;;;;;10.00;10.00;;;;;8.08;60.43;100304.84;5097790;28;8816;-63
2022/05/02 00:42:35;;;;;;;;;10.00;9.60;;;;;8.08;60.71;100294.25;5097812;28;8811;-63
2022/05/02 00:45:03;;;;;;;;;10.00;10.00;;;;;8.10;60.64;100296.78;5097918;28;8859;-62
2022/05/02 00:47:31;;;;;;;;;11.00;9.60;;;;;8.11;60.45;100287.84;5097846;28;8823;-62
2022/05/02 00:49:58;;;;;;;;;16.40;13.80;;;;;8.12;60.66;100285.13;5097515;28;8844;-62
2022/05/02 00:52:26;;;;;;;;;7.40;6.20;;;;;8.17;60.31;100293.66;5097775;28;8835;-62
2022/05/02 00:54:53;;;;;;;;;8.60;8.20;;;;;8.21;60.82;100295.16;5097910;28;8838;-63
2022/05/02 00:57:21;;;;;;;;;12.20;12.00;;;;;8.27;60.40;100297.44;5097781;28;8820;-62
2022/05/02 00:59:49;;;;;;;;;15.20;14.60;;;;;8.34;60.01;100290.78;5097920;28;8835;-62
2022/05/02 01:02:17;;;;;;;;;10.40;9.20;;;;;8.44;59.86;100293.69;5097573;28;8832;-62
2022/05/02 01:04:45;;;;;;;;;12.00;8.00;;;;;8.51;59.94;100290.53;5097224;28;8838;-63
2022/05/02 01:07:19;;;;;;;;;10.00;10.00;;;;;8.59;60.21;100290.03;5097382;28;8851;-63
2022/05/02 01:09:46;;;;;;;;;11.80;10.00;;;;;8.64;59.95;100287.91;5097326;28;8853;-62
2022/05/02 01:12:14;;;;;;;;;12.00;12.00;;;;;8.67;60.14;100282.41;5097505;28;8816;-62
2022/05/02 01:14:42;;;;;;;;;10.20;8.20;;;;;8.67;59.62;100283.25;5097441;28;8824;-62
2022/05/02 01:17:11;;;;;;;;;13.00;12.60;;;;;8.65;59.60;100271.88;5097425;28;8828;-62
2022/05/02 01:19:38;;;;;;;;;11.20;10.00;;;;;8.63;59.90;100276.44;5097661;28;8827;-62
2022/05/02 01:22:06;;;;;;;;;12.20;12.20;;;;;8.60;59.71;100271.31;5097394;28;8946;-62
2022/05/02 01:24:34;;;;;;;;;14.60;12.80;;;;;8.55;59.96;100270.81;5097279;28;8823;-62
2022/05/02 01:27:02;;;;;;;;;15.80;15.80;;;;;8.51;60.13;100273.75;5097201;28;8835;-62
2022/05/02 01:29:30;;;;;;;;;12.40;10.80;;;;;8.43;60.43;100278.72;5096588;28;8862;-63
2022/05/02 01:31:57;;;;;;;;;16.20;15.20;;;;;8.36;60.67;100280.91;5097364;28;8844;-63
2022/05/02 01:34:25;;;;;;;;;12.80;12.60;;;;;8.28;60.85;100277.06;5097262;28;8831;-62
2022/05/02 01:36:53;;;;;;;;;11.00;9.40;;;;;8.18;61.04;100276.78;5096107;28;8827;-63
2022/05/02 01:39:20;;;;;;;;;10.80;9.00;;;;;8.07;61.38;100276.59;5096802;28;8820;-62
2022/05/02 01:41:49;;;;;;;;;9.00;8.60;;;;;7.99;61.43;100280.72;5097005;28;8828;-62
2022/05/02 01:44:16;;;;;;;;;10.00;10.00;;;;;7.93;62.00;100265.19;5096947;28;8840;-62
2022/05/02 01:46:44;;;;;;;;;14.20;11.80;;;;;7.85;61.53;100265.66;5097063;28;8832;-63
2022/05/02 01:49:12;;;;;;;;;8.60;7.00;;;;;7.82;62.36;100272.94;5096962;28;8827;-62
2022/05/02 01:51:40;;;;;;;;;10.00;9.40;;;;;7.75;61.77;100259.25;5096881;28;8941;-63
2022/05/02 01:54:08;;;;;;;;;9.00;9.00;;;;;7.72;62.23;100258.59;5096730;28;8901;-63
2022/05/02 01:56:36;;;;;;;;;9.00;7.40;;;;;7.68;62.22;100257.91;5097030;28;8940;-63
2022/05/02 01:59:04;;;;;;;;;11.00;10.00;;;;;7.66;62.27;100258.97;5096974;28;8835;-63
2022/05/02 02:01:31;;;;;;;;;12.80;11.60;;;;;7.65;62.14;100251.97;5096877;28;8854;-64
2022/05/02 02:03:59;;;;;;;;;10.80;9.00;;;;;7.61;61.93;100250.47;5096807;28;8942;-63
2022/05/02 02:06:26;;;;;;;;;6.80;5.60;;;;;7.59;62.30;100248.84;5096811;28;8827;-63
2022/05/02 02:08:53;;;;;;;;;9.00;9.00;;;;;7.58;61.88;100249.81;5096339;28;8858;-63
2022/05/02 02:11:23;;;;;;;;;10.00;10.00;;;;;7.56;62.48;100251.69;5096069;28;8828;-63
2022/05/02 02:13:50;;;;;;;;;11.20;10.00;;;;;7.53;62.42;100251.88;5096275;28;8843;-62
2022/05/02 02:16:18;;;;;;;;;4.40;3.60;;;;;7.48;62.21;100254.81;5096681;28;9546;-62
2022/05/02 02:18:46;;;;;;;;;9.20;9.20;;;;;7.45;62.31;100254.16;5096600;28;8808;-63
2022/05/02 02:21:13;;;;;;;;;7.40;7.40;;;;;7.40;62.79;100257.09;5096433;28;8870;-63
2022/05/02 02:23:41;;;;;;;;;9.60;9.20;;;;;7.36;62.72;100255.56;5096384;28;8850;-63
2022/05/02 02:26:09;;;;;;;;;12.20;12.20;;;;;7.33;62.73;100255.75;5096195;28;8848;-63
2022/05/02 02:28:37;;;;;;;;;7.80;7.00;;;;;7.34;62.75;100256.63;5096456;28;8962;-63
2022/05/02 02:31:05;;;;;;;;;9.20;9.20;;;;;7.34;62.79;100261.94;5096013;28;8819;-63
2022/05/02 02:33:32;;;;;;;;;8.20;6.60;;;;;7.37;62.24;100251.13;5096155;28;8819;-63
2022/05/02 02:36:00;;;;;;;;;15.60;13.00;;;;;7.43;62.57;100253.41;5095527;28;8832;-63
2022/05/02 02:38:28;;;;;;;;;12.40;10.80;;;;;7.49;62.30;100247.75;5096389;28;8850;-62
2022/05/02 02:40:56;;;;;;;;;14.60;14.60;;;;;7.56;62.33;100233.13;5095605;28;8847;-63
2022/05/02 02:43:23;;;;;;;;;8.60;7.80;;;;;7.62;61.98;100235.41;5096221;28;8828;-63
2022/05/02 02:45:51;;;;;;;;;7.80;7.00;;;;;7.68;61.66;100240.31;5095649;28;8832;-63
2022/05/02 02:48:19;;;;;;;;;10.40;9.20;;;;;7.70;61.79;100234.81;5096125;28;8882;-64
2022/05/02 02:50:47;;;;;;;;;12.40;11.60;;;;;7.73;61.96;100231.13;5095987;28;8869;-63
2022/05/02 02:53:14;;;;;;;;;12.80;12.60;;;;;7.75;61.64;100231.91;5095996;28;8840;-63
2022/05/02 02:55:42;;;;;;;;;9.40;9.40;;;;;7.75;62.19;100227.44;5096138;28;8950;-63
2022/05/02 02:58:10;;;;;;;;;11.60;11.60;;;;;7.74;61.93;100230.16;5095938;28;8849;-63
2022/05/02 03:00:38;;;;;;;;;7.80;7.00;;;;;7.70;62.05;100229.50;5095793;28;8831;-63
2022/05/02 03:03:05;;;;;;;;;10.00;8.20;;;;;7.68;62.08;100225.28;5095482;28;8851;-62
2022/05/02 03:08:20;;;;;;;;;13.00;12.40;;;;;7.59;62.21;100228.50;5095828;28;8839;-63
2022/05/02 03:10:48;;;;;;;;;19.00;15.80;;;;;7.54;62.67;100237.69;5095427;28;8812;-63
2022/05/02 03:13:16;;;;;;;;;10.80;10.00;;;;;7.48;62.64;100232.75;5095851;28;8974;-63
2022/05/02 03:15:43;;;;;;;;;12.20;10.80;;;;;7.42;62.60;100228.69;5095343;28;8846;-63
2022/05/02 03:18:12;;;;;;;;;10.80;9.20;;;;;7.38;62.99;100236.94;5095656;28;8981;-63
2022/05/02 03:20:39;;;;;;;;;13.80;12.80;;;;;7.34;63.07;100227.50;5095657;28;8840;-63
2022/05/02 03:23:07;;;;;;;;;9.20;9.20;;;;;7.29;63.10;100233.03;5095434;28;8828;-62
2022/05/02 03:25:34;;;;;;;;;12.60;11.00;;;;;7.25;63.05;100231.56;5095853;28;8851;-63
2022/05/02 03:28:03;;;;;;;;;11.00;10.80;;;;;7.21;63.29;100229.19;5095525;28;8824;-63
2022/05/02 03:30:30;;;;;;;;;11.00;8.40;;;;;7.17;63.61;100225.88;5095158;28;8823;-62
2022/05/02 03:32:58;;;;;;;;;9.40;7.40;;;;;7.14;62.87;100225.22;5095608;28;8848;-63
2022/05/02 03:35:26;;;;;;;;;12.20;11.60;;;;;7.10;63.21;100232.50;5095823;28;8920;-63
2022/05/02 03:37:54;;;;;;;;;13.80;12.80;;;;;7.06;62.95;100224.81;5094257;28;8831;-63
2022/05/02 03:40:22;;;;;;;;;9.20;9.00;;;;;7.03;63.41;100228.50;5095454;28;8850;-63
2022/05/02 03:42:49;;;;;;;;;10.20;8.40;;;;;6.99;63.39;100231.44;5095471;28;8835;-62
2022/05/02 03:45:17;;;;;;;;;16.00;15.00;;;;;6.97;63.77;100225.38;5095206;28;8835;-62
2022/05/02 03:47:45;;;;;;;;;11.60;11.60;;;;;6.95;63.88;100227.25;5097457;28;8839;-62
2022/05/02 03:50:13;;;;;;;;;12.40;10.40;;;;;6.92;63.72;100223.03;5098545;28;8848;-62
2022/05/02 03:52:40;;;;;;;;;12.20;11.20;;;;;6.90;63.63;100224.88;5098844;28;8843;-62
2022/05/02 03:55:08;;;;;;;;;12.80;12.40;;;;;6.88;63.66;100220.63;5099086;28;8842;-62
2022/05/02 03:57:36;;;;;;;;;10.80;10.80;;;;;6.84;63.96;100221.78;5098241;28;8835;-62
2022/05/02 04:00:04;;;;;;;;;10.00;9.40;;;;;6.83;63.75;100220.06;5098811;28;8857;-63
2022/05/02 04:02:32;;;;;;;;;13.40;10.60;;;;;6.85;63.74;100218.19;5098832;28;9554;-63
2022/05/02 04:04:59;;;;;;;;;12.80;12.00;;;;;6.89;63.86;100217.91;5097870;28;8827;-63
2022/05/02 04:07:29;;;;;;;;;13.00;10.80;;;;;6.94;63.92;100215.84;5098125;28;8831;-62
2022/05/02 04:09:56;;;;;;;;;12.60;12.60;;;;;7.00;63.21;100219.91;5097697;28;8861;-62
2022/05/02 04:12:24;;;;;;;;;12.80;11.00;;;;;7.06;63.02;100214.22;5097680;28;8816;-63
2022/05/02 04:14:52;;;;;;;;;12.20;10.60;;;;;7.12;63.02;100213.88;5098165;28;8846;-63
2022/05/02 04:17:19;;;;;;;;;11.00;9.40;;;;;7.17;62.88;100214.41;5097702;28;8843;-62
2022/05/02 04:19:47;;;;;;;;;10.80;10.40;;;;;7.20;62.85;100215.06;5098264;28;8855;-63
2022/05/02 04:22:15;;;;;;;;;17.20;13.80;;;;;7.20;62.54;100212.44;5098271;28;8823;-63
2022/05/02 04:24:42;;;;;;;;;13.40;12.60;;;;;7.18;63.08;100206.38;5098474;28;8827;-63
2022/05/02 04:27:11;;;;;;;;;15.20;14.20;;;;;7.19;63.16;100215.19;5098077;28;8837;-68
2022/05/02 04:29:38;;;;;;;;;13.00;12.00;;;;;7.20;63.07;100214.25;5098141;28;8970;-63
2022/05/02 04:32:06;;;;;;;;;12.00;9.60;;;;;7.22;63.21;100220.28;5097394;28;8831;-63
2022/05/02 04:34:34;;;;;;;;;15.40;12.20;;;;;7.26;63.14;100220.00;5098054;28;8917;-63
2022/05/02 04:37:02;;;;;;;;;10.00;10.00;;;;;7.31;63.02;100214.41;5097393;28;8824;-63
2022/05/02 04:39:29;;;;;;;;;8.80;7.40;;;;;7.36;63.22;100213.19;5097164;28;8950;-62
2022/05/02 04:41:57;;;;;;;;;15.00;13.40;;;;;7.42;62.56;100210.16;5097401;28;8838;-63
2022/05/02 04:44:25;;;;;;;;;12.20;10.00;;;;;7.49;62.96;100210.66;5096296;28;8955;-63
2022/05/02 04:46:53;;;;;;;;;14.20;13.60;;;;;7.56;62.71;100210.16;5096768;28;9686;-63
2022/05/02 04:49:20;;;;;;;;;13.80;12.00;;;;;7.64;62.46;100207.88;5096586;28;8839;-63
2022/05/02 04:51:48;;;;;;;;;12.00;11.20;;;;;7.69;62.57;100211.09;5097255;28;8836;-63
2022/05/02 04:54:16;;;;;;;;;9.60;9.00;;;;;7.75;62.24;100205.41;5096752;28;8855;-63
2022/05/02 04:56:43;;;;;;;;;9.80;8.20;;;;;7.84;62.33;100218.06;5096330;28;8904;-63
2022/05/02 04:59:11;;;;;;;;;11.60;10.00;;;;;7.90;62.18;100213.19;5096725;28;8950;-63
2022/05/02 05:01:39;;;;;;;;;7.00;7.00;;;;;7.98;61.91;100208.25;5096780;28;8823;-63
2022/05/02 05:04:07;;;;;;;;;13.40;12.20;;;;;8.08;61.98;100217.34;5094603;28;8839;-63
2022/05/02 05:06:35;;;;;;;;;14.20;12.40;;;;;8.16;61.69;100215.03;5094424;28;8925;-62
2022/05/02 05:09:03;;;;;;;;;13.40;10.00;;;;;8.24;61.55;100219.84;5094191;28;8847;-63
2022/05/02 05:11:30;;;;;;;;;13.40;12.00;;;;;8.31;61.22;100221.16;5094939;28;8827;-63
2022/05/02 05:16:40;;;;;;;;;15.80;14.20;;;;;8.47;61.10;100206.78;5094887;28;8839;-64
2022/05/02 05:19:08;;;;;;;;;14.00;12.80;;;;;8.55;61.07;100211.56;5095020;28;8924;-62
2022/05/02 05:21:35;;;;;;;;;16.80;15.20;;;;;8.66;60.80;100212.53;5095681;28;8855;-63
2022/05/02 05:24:03;;;;;;;;;15.60;15.60;;;;;8.73;60.70;100203.19;5095820;28;8901;-63
2022/05/02 05:26:31;;;;;;;;;11.20;9.40;;;;;8.82;60.82;100204.38;5095880;28;9182;-64
2022/05/02 05:28:59;;;;;;;;;12.40;12.00;;;;;8.91;60.58;100207.28;5093612;28;9551;-63
2022/05/02 05:31:26;;;;;;;;;4.00;4.00;;;;;8.99;60.62;100206.72;5094688;28;8974;-63
2022/05/02 05:33:54;;;;;;;;;17.00;15.60;;;;;9.07;60.41;100207.91;5093900;28;8835;-63
2022/05/02 05:36:22;;;;;;;;;13.00;12.20;;;;;9.14;60.45;100193.25;5094589;28;8835;-63
2022/05/02 05:38:51;;;;;;;;;16.60;15.40;;;;;9.18;60.45;100196.53;5093150;28;9544;-63
2022/05/02 05:41:19;;;;;;;;;15.20;14.60;;;;;9.22;60.24;100193.56;5093677;28;9565;-63
2022/05/02 05:43:46;;;;;;;;;13.40;13.40;;;;;9.25;60.20;100197.78;5091422;28;8839;-63
2022/05/02 05:46:14;;;;;;;;;12.00;12.00;;;;;9.27;60.09;100194.06;5091738;28;8990;-63
2022/05/02 05:48:43;;;;;;;;;13.80;12.80;;;;;9.32;59.74;100205.22;5090549;28;8854;-63
2022/05/02 05:51:11;;;;;;;;;9.80;9.00;;;;;9.36;59.86;100201.41;5089274;28;9528;-63
2022/05/02 05:53:38;;;;;;;;;12.00;9.80;;;;;9.43;59.85;100205.31;5091195;28;8848;-63
2022/05/02 05:56:09;;;;;;;;;15.60;13.80;;;;;9.52;60.01;100206.47;5092627;28;8954;-63
2022/05/02 05:58:37;;;;;;;;;15.40;14.40;;;;;9.60;60.46;100210.31;5092419;28;8836;-63
2022/05/02 06:01:04;;;;;;;;;14.80;13.20;;;;;9.67;60.01;100200.06;5091484;28;8843;-63
2022/05/02 06:03:32;;;;;;;;;16.40;16.20;;;;;9.73;59.74;100210.28;5092366;28;9524;-63
2022/05/02 06:06:00;;;;;;;;;7.60;6.80;;;;;9.80;59.69;100203.56;5091593;28;8844;-62
2022/05/02 06:08:28;;;;;;;;;16.80;15.20;;;;;9.87;59.85;100213.63;5092522;28;9197;-63
2022/05/02 06:10:55;;;;;;;;;13.40;12.80;;;;;9.89;59.99;100203.75;5093727;28;8832;-63
2022/05/02 06:13:25;;;;;;;;;12.20;10.00;;;;;9.94;59.79;100203.41;5093483;28;8827;-63
2022/05/02 06:18:58;;;;;;;;;17.20;17.20;;;;;10.04;59.93;100202.66;5094166;28;8839;-63
2022/05/02 06:21:26;;;;;;;;;12.00;10.20;;;;;10.08;59.74;100208.59;5094000;28;8871;-63
2022/05/02 06:23:53;;;;;;;;;18.60;15.80;;;;;10.15;60.02;100207.16;5093794;28;8837;-63
2022/05/02 06:26:21;;;;;;;;;16.00;15.20;;;;;10.23;59.44;100213.63;5093581;28;8843;-63
2022/05/02 06:28:49;;;;;;;;;15.40;13.40;;;;;10.32;59.41;100204.97;5094726;28;8839;-63
2022/05/02 06:31:18;;;;;;;;;18.60;17.40;;;;;10.39;59.27;100208.88;5093280;28;8973;-63
2022/05/02 06:33:48;;;;;;;;;13.80;13.80;;;;;10.46;59.29;100209.28;5094006;28;8844;-63
2022/05/02 06:36:16;;;;;;;;;16.00;15.60;;;;;10.54;59.11;100207.72;5094202;28;8844;-63
2022/05/02 06:38:44;;;;;;;;;17.20;14.60;;;;;10.60;59.20;100209.94;5093869;28;8836;-62
2022/05/02 06:41:12;;;;;;;;;16.40;15.80;;;;;10.70;58.74;100202.94;5093480;28;8824;-63
2022/05/02 06:43:39;;;;;;;;;18.00;15.00;;;;;10.81;58.69;100202.97;5092537;28;8823;-63
2022/05/02 06:46:07;;;;;;;;;16.60;15.80;;;;;10.94;58.90;100203.72;5092008;28;8854;-63
2022/05/02 06:48:35;;;;;;;;;11.40;10.80;;;;;11.08;58.29;100197.34;5092459;28;8827;-63
2022/05/02 06:51:04;;;;;;;;;14.00;12.75;;;;;11.18;58.06;100199.19;5092648;28;8867;-63
2022/05/02 06:53:32;;;;;;;;;17.75;15.50;;;;;11.27;58.10;100192.25;5093037;28;8877;-62
2022/05/02 06:55:59;;;;;;;;;15.00;13.00;;;;;11.34;58.01;100191.66;5091752;28;8861;-63
2022/05/02 06:58:27;;;;;;;;;15.00;13.00;;;;;11.39;58.03;100194.78;5092196;28;8981;-63
2022/05/02 07:00:55;;;;;;;;;12.00;10.50;;;;;11.41;57.95;100195.56;5091258;28;8851;-63
2022/05/02 07:03:23;;;;;;;;;19.25;17.25;;;;;11.43;58.25;100198.94;5091104;28;8836;-64
2022/05/02 07:05:51;;;;;;;;;10.50;10.50;;;;;11.47;58.00;100195.06;5091658;28;8922;-63
2022/05/02 07:08:19;;;;;;;;;9.75;7.00;;;;;11.51;58.09;100196.50;5093211;28;8835;-63
2022/05/02 07:10:46;;;;;;;;;16.00;15.00;;;;;11.54;57.99;100196.25;5091833;28;8842;-64
2022/05/02 07:13:15;;;;;;;;;18.00;16.00;;;;;11.59;58.46;100206.63;5092147;28;8835;-63
2022/05/02 07:15:43;;;;;;;;;14.50;13.50;;;;;11.61;57.57;100205.50;5090814;28;8932;-63
2022/05/02 07:18:10;;;;;;;;;4.50;4.50;;;;;11.63;57.72;100208.91;5091685;28;8838;-63
2022/05/02 07:20:38;;;;;;;;;11.00;11.00;;;;;11.65;58.06;100211.44;5091387;28;8911;-63
2022/05/02 07:23:06;;;;;;;;;15.75;15.00;;;;;11.70;58.10;100202.13;5095785;28;9550;-63
2022/05/02 07:25:33;;;;;;;;;17.50;15.75;;;;;11.75;58.05;100204.41;5096349;28;9477;-63
2022/05/02 07:28:01;;;;;;;;;18.75;16.50;;;;;11.83;57.57;100202.81;5095995;28;8835;-63
2022/05/02 07:30:29;;;;;;;;;15.50;15.00;;;;;12.00;57.18;100202.31;5095977;28;9504;-63
2022/05/02 07:32:57;;;;;;;;;23.50;18.50;;;;;12.15;56.86;100201.91;5096542;28;8824;-64
2022/05/02 07:35:25;;;;;;;;;18.00;17.00;;;;;12.33;56.69;100202.22;5095973;28;8859;-63
2022/05/02 07:37:53;;;;;;;;;17.00;15.00;;;;;12.50;56.90;100193.63;5095744;28;8832;-63
2022/05/02 07:40:20;;;;;;;;;15.50;15.50;;;;;12.63;56.55;100199.66;5095715;28;8906;-63
2022/05/02 07:42:48;;;;;;;;;18.00;15.75;;;;;12.78;56.10;100191.22;5096027;28;8916;-64
2022/05/02 07:45:17;;;;;;;;;19.50;18.50;;;;;12.92;56.34;100201.56;5094727;28;8844;-63
2022/05/02 07:47:45;;;;;;;;;17.00;17.00;;;;;13.04;55.75;100205.03;5096244;28;8843;-63
2022/05/02 07:50:13;;;;;;;;;19.00;17.50;;;;;13.16;55.68;100195.97;5096165;28;8901;-63
2022/05/02 07:52:41;;;;;;;;;18.25;17.50;;;;;13.27;55.63;100199.41;5096276;28;8985;-63
2022/05/02 07:55:09;;;;;;;;;15.75;15.75;;;;;13.38;55.70;100193.16;5095791;28;8966;-63
2022/05/02 07:57:38;;;;;;;;;15.25;15.25;;;;;13.53;55.40;100191.81;5095903;28;8839;-63
2022/05/02 08:00:07;;;;;;;;;15.75;13.75;;;;;13.66;55.31;100190.59;5096736;28;8870;-63
2022/05/02 08:02:34;;;;;;;;;17.75;15.50;;;;;13.80;55.09;100190.22;5096366;28;8836;-64
2022/05/02 08:05:03;;;;;;;;;19.00;15.75;;;;;13.95;54.70;100185.31;5096878;28;8824;-63
2022/05/02 08:07:30;;;;;;;;;11.75;11.00;;;;;14.06;54.35;100180.72;5096188;28;8966;-63
2022/05/02 08:09:58;;;;;;;;;20.50;19.00;;;;;14.21;54.47;100189.22;5093196;28;8949;-63
2022/05/02 08:12:26;;;;;;;;;19.25;16.75;;;;;14.34;54.49;100187.13;5094250;28;9279;-63
2022/05/02 08:14:54;;;;;;;;;21.50;18.75;;;;;14.45;54.12;100201.22;5093021;28;8835;-63
2022/05/02 08:17:21;;;;;;;;;18.75;17.50;;;;;14.59;54.29;100189.25;5093051;28;8847;-63
2022/05/02 08:19:49;;;;;;;;;16.00;13.50;;;;;14.74;53.79;100182.47;5092681;28;8847;-63
2022/05/02 08:27:47;;;;;;;;;22.50;21.00;;;;;15.26;53.54;100177.41;5092635;28;8977;-63
2022/05/02 08:30:15;;;;;;;;;15.50;15.50;;;;;15.38;53.22;100178.97;5093571;28;9599;-63
2022/05/02 08:32:42;;;;;;;;;18.25;18.00;;;;;15.49;53.04;100180.63;5092070;28;9647;-63
2022/05/02 08:35:11;;;;;;;;;21.50;17.25;;;;;15.71;52.68;100180.25;5092822;28;9161;-62
2022/05/02 08:37:38;;;;;;;;;13.00;12.25;;;;;15.95;52.29;100172.47;5092614;28;8839;-63
2022/05/02 08:40:06;;;;;;;;;17.00;13.50;;;;;16.17;52.09;100177.44;5094780;28;9040;-63
2022/05/02 08:42:37;;;;;;;;;19.50;18.75;;;;;16.38;51.74;100176.16;5095239;28;8843;-63
2022/05/02 08:45:05;;;;;;;;;16.50;16.00;;;;;16.53;51.48;100174.63;5094456;28;8847;-63
2022/05/02 08:47:32;;;;;;;;;19.00;18.25;;;;;16.63;51.11;100170.88;5093211;28;8842;-62
2022/05/02 08:50:00;;;;;;;;;12.75;12.50;;;;;16.78;51.47;100163.94;5092527;28;8843;-63
2022/05/02 08:52:28;;;;;;;;;22.00;20.25;;;;;16.92;51.09;100166.06;5093079;28;8914;-63
2022/05/02 08:54:56;;;;;;;;;23.50;23.00;;;;;16.98;50.79;100170.84;5092496;28;8859;-63
2022/05/02 08:57:23;;;;;;;;;16.00;13.00;;;;;17.00;51.30;100168.81;5092939;28;8990;-64
2022/05/02 08:59:51;;;;;;;;;21.00;18.25;;;;;17.07;51.34;100169.88;5092418;28;8835;-63
2022/05/02 09:02:20;;;;;;;;;14.50;13.75;;;;;17.23;50.63;100169.97;5093786;28;8858;-62
2022/05/02 09:04:48;;;;;;;;;19.75;19.75;;;;;17.37;50.92;100163.19;5092429;28;8844;-63
2022/05/02 09:07:17;;;;;;;;;22.00;21.00;;;;;17.51;50.47;100160.78;5093601;28;8827;-63
2022/05/02 09:09:45;;;;;;;;;24.25;21.00;;;;;17.61;50.88;100158.78;5093345;28;8839;-63
2022/05/02 09:12:13;;;;;;;;;17.75;16.75;;;;;17.64;50.08;100158.47;5091784;28;8844;-63
2022/05/02 09:14:41;;;;;;;;;17.50;17.00;;;;;17.66;50.70;100152.91;5091324;28;8951;-63
2022/05/02 09:17:08;;;;;;;;;8.00;7.25;;;;;17.66;50.80;100155.59;5092905;28;9525;-63
2022/05/02 09:19:36;;;;;;;;;21.00;17.75;;;;;17.69;50.27;100158.00;5090999;28;8842;-63
2022/05/02 09:22:04;;;;;;;;;15.75;15.00;;;;;17.72;50.76;100155.81;5093832;28;8946;-65
2022/05/02 09:24:31;;;;;;;;;19.25;18.25;;;;;17.84;50.35;100150.97;5093710;28;8839;-64
2022/05/02 09:26:59;;;;;;;;;21.00;18.25;;;;;17.92;50.16;100151.00;5093771;28;9645;-63
2022/05/02 09:29:27;;;;;;;;;18.50;17.00;;;;;18.03;50.25;100151.56;5092574;28;8846;-63
2022/05/02 09:31:55;;;;;;;;;18.00;18.00;;;;;18.17;50.33;100147.38;5092479;28;8819;-63
2022/05/02 09:34:23;;;;;;;;;18.25;17.50;;;;;18.33;49.84;100150.13;5093513;28;8855;-64
2022/05/02 09:36:50;;;;;;;;;18.25;17.00;;;;;18.56;49.34;100141.22;5093296;28;8869;-64
2022/05/02 09:39:18;;;;;;;;;19.00;17.00;;;;;18.68;48.94;100145.25;5092213;28;8843;-64
2022/05/02 09:41:46;;;;;;;;;12.50;12.50;;;;;18.80;48.92;100141.22;5092496;28;8843;-64
2022/05/02 09:49:47;;;;;;;;;19.50;18.00;;;;;19.91;47.54;100133.88;5091592;28;8835;-63
2022/05/02 09:52:15;;;;;;;;;17.50;15.25;;;;;20.50;46.83;100121.53;5091483;28;8869;-64
2022/05/02 09:57:29;;;;;;;;;19.00;18.80;;;;;21.60;45.00;100120.63;5091376;28;8851;-63
2022/05/02 10:01:06;;;;;;;;;16.40;15.20;;;;;22.01;44.51;100121.81;5093809;28;8858;-64
2022/05/02 10:02:44;;;;;;;;;20.80;20.20;;;;;22.40;43.84;100127.69;5092734;28;8839;-63
2022/05/02 10:05:12;;;;;;;;;19.80;18.20;;;;;22.67;43.97;100119.66;5092410;28;8819;-64
2022/05/02 10:07:40;;;;;;;;;17.80;17.40;;;;;23.03;43.71;100117.66;5093437;28;8823;-64
2022/05/02 10:10:08;;;;;;;;;16.60;15.20;;;;;23.39;42.84;100121.09;5092276;28;9273;-63
2022/05/02 10:12:36;;;;;;;;;20.20;19.40;;;;;23.66;42.77;100113.94;5092583;28;8920;-64
2022/05/02 10:15:04;;;;;;;;;20.60;18.60;;;;;23.94;42.54;100109.25;5092735;28;8858;-64
2022/05/02 10:17:32;;;;;;;;;22.80;21.20;;;;;24.20;42.04;100110.19;5092347;28;8843;-64
2022/05/02 10:20:00;;;;;;;;;22.60;18.20;;;;;24.33;41.95;100104.78;5092142;28;8855;-64
2022/05/02 10:22:28;;;;;;;;;21.00;20.40;;;;;24.45;41.54;100102.31;5093108;28;8831;-64
2022/05/02 10:24:56;;;;;;;;;20.20;18.80;;;;;24.51;42.02;100104.19;5092879;28;8835;-64
2022/05/02 10:27:23;;;;;;;;;21.60;20.80;;;;;24.75;41.53;100107.19;5092851;28;8861;-64
2022/05/02 10:29:51;;;;;;;;;20.20;18.60;;;;;24.99;40.88;100100.28;5092023;28;8965;-64
2022/05/02 10:32:19;;;;;;;;;25.60;23.00;;;;;25.22;40.83;100100.66;5091226;28;8839;-64
2022/05/02 10:34:47;;;;;;;;;24.40;23.40;;;;;25.41;40.21;100106.13;5089661;28;8954;-64
2022/05/02 10:37:15;;;;;;;;;19.20;15.60;;;;;25.59;40.21;100098.13;5091718;28;8866;-64
2022/05/02 10:39:47;;;;;;;;;19.80;19.20;;;;;25.84;39.83;100096.34;5091698;28;9003;-64
2022/05/02 10:42:16;;;;;;;;;19.20;18.60;;;;;26.20;39.59;100096.63;5089387;28;8847;-64
2022/05/02 10:44:44;;;;;;;;;19.40;18.40;;;;;26.39;39.58;100090.19;5089778;28;9020;-64
2022/05/02 10:47:12;;;;;;;;;22.40;19.60;;;;;26.59;38.66;100083.59;5090675;28;8862;-64
2022/05/02 10:49:40;;;;;;;;;21.80;21.00;;;;;26.84;38.41;100080.84;5091683;28;8866;-67
2022/05/02 10:52:07;;;;;;;;;21.00;20.80;;;;;27.12;38.44;100075.78;5091619;28;8963;-65
2022/05/02 10:54:35;;;;;;;;;24.80;23.60;;;;;27.49;37.88;100075.63;5090949;28;8832;-64
2022/05/02 10:57:03;;;;;;;;;22.40;21.00;;;;;27.79;37.20;100068.38;5093870;28;8908;-64
2022/05/02 10:59:31;;;;;;;;;21.20;20.20;;;;;28.05;37.35;100068.00;5095475;28;8949;-64
2022/05/02 11:01:59;;;;;;;;;21.00;19.40;;;;;28.21;37.06;100061.88;5094436;28;8976;-64
2022/05/02 11:04:27;;;;;;;;;20.60;19.20;;;;;28.36;36.47;100065.06;5095749;28;8836;-64
2022/05/02 11:06:56;;;;;;;;;20.80;19.20;;;;;28.38;36.46;100057.44;5095356;28;9583;-64
2022/05/02 11:09:24;;;;;;;;;19.60;18.60;;;;;28.38;37.04;100064.84;5095546;28;8842;-64
2022/05/02 11:11:52;;;;;;;;;20.20;20.00;;;;;28.55;36.75;100065.84;5095031;28;8866;-64
2022/05/02 11:14:19;;;;;;;;;18.00;17.00;;;;;28.75;36.47;100063.63;5095134;28;8857;-64
2022/05/02 11:16:47;;;;;;;;;18.40;14.80;;;;;28.95;35.64;100058.66;5094217;28;8839;-64
2022/05/02 11:22:00;;;;;;;;;25.20;23.00;;;;;29.26;35.28;100053.66;5093923;28;8859;-64
2022/05/02 11:24:28;;;;;;;;;23.40;21.40;;;;;29.32;35.31;100054.59;5094720;28;8900;-64
2022/05/02 11:26:56;;;;;;;;;22.60;21.60;;;;;29.41;35.42;100058.66;5094819;28;8835;-64
2022/05/02 11:29:23;;;;;;;;;19.20;17.20;;;;;29.56;34.77;100051.63;5093561;28;9606;-64
2022/05/02 11:31:51;;;;;;;;;21.20;20.40;;;;;29.74;34.41;100043.19;5093541;28;8835;-64
2022/05/02 11:34:19;;;;;;;;;18.60;17.40;;;;;29.87;34.55;100048.44;5094550;28;8843;-64
2022/05/02 11:36:47;;;;;;;;;22.80;20.00;;;;;30.05;34.23;100048.25;5093744;28;8846;-64
2022/05/02 11:39:21;;;;;;;;;21.20;19.20;;;;;30.11;33.71;100044.53;5094264;28;8855;-64
2022/05/02 11:41:49;;;;;;;;;21.40;20.40;;;;;30.19;33.79;100038.66;5095092;28;8831;-64
2022/05/02 11:44:17;;;;;;;;;24.20;21.20;;;;;30.28;34.37;100028.94;5095622;28;8843;-64
2022/05/02 11:46:45;;;;;;;;;19.20;19.00;;;;;30.25;34.10;100034.09;5094431;28;9482;-64
2022/05/02 11:49:13;;;;;;;;;18.40;17.80;;;;;29.94;34.52;100032.63;5095271;28;8835;-64
2022/05/02 11:51:41;;;;;;;;;21.00;19.80;;;;;30.03;34.13;100035.84;5096096;28;8860;-64